Site Name District Date/Time Temperature (°C) Dew Point (°C) Apparent Temp. (°C) Humidity (%) Wind Direction Wind Speed (km/h) Wind Gust (km/h) Rainfall (mm)
KNUCKEY LAGOON 14GA 2026-05-09 11:30:00 28.0 19.0 28.0 58 ESE 17 22 0.0
EAST POINT 14GA 2026-05-09 11:30:00 28.6 19.5 30.0 58 SE 11 20 0.0
NOONAMAH AIRSTRIP 14GA 2026-05-09 11:30:00 29.3 19.9 30.1 57 SE 15 30 0.0
NGUKURR AIRPORT 14DE 2026-05-09 11:30:00 28.8 14.2 27.3 40 ESE 15 24 0.0
CROKER ISLAND AIRPORT 14GA 2026-05-09 11:30:00 28.6 23.5 30.0 74 ESE 22 32 0.0
MURGANELLA AIRSTRIP 14GA 2026-05-09 11:30:00 29.4 23.1 31.5 69 E 17 30 0.0
OENPELLI AIRPORT 14GA 2026-05-09 11:30:00 31.5 20.4 32.9 51 SE 13 22 0.0
MOUNT BUNDEY SOUTH (DEFENCE) 14GA 2026-05-09 11:30:00 29.3 18.1 29.3 51 SE 15 28 -
DUM IN MIRRIE AIRSTRIP 14GA 2026-05-09 11:30:00 29.8 19.2 30.7 53 E 13 28 0.0
PIRLANGIMPI AIRPORT 14GA 2026-05-09 11:30:00 29.2 19.5 29.8 56 ESE 15 22 0.0
DARWIN AIRPORT 14GA 2026-05-09 11:30:00 28.3 19.2 27.1 57 ESE 24 33 0.0
CHANNEL POINT 14GA 2026-05-09 09:00:00 21.7 None None None SE 28 None 0.0
POINT FAWCETT 14GA 2026-05-09 11:30:00 28.6 19.2 28.1 56 E 20 33 0.0
BATCHELOR AIRPORT 14GA 2026-05-09 11:30:00 27.9 18.6 26.4 57 ESE 24 32 0.0
POINT STUART 14GA 2026-05-09 11:30:00 29.4 21.6 30.3 63 ESE 19 24 0.0
DOUGLAS RIVER RESEARCH FARM 14GA 2026-05-09 11:30:00 27.3 14.7 24.6 46 SSE 22 32 0.0
TINDAL RAAF 14GA 2026-05-09 11:30:00 27.3 12.5 22.8 40 ESE 28 39 0.0
JABIRU AIRPORT 14GA 2026-05-09 11:30:00 30.1 20.6 30.3 56 E 20 32 0.0
WARRUWI AIRPORT 14BC 2026-05-09 11:30:00 29.1 23.3 31.7 71 E 15 28 0.0
MILINGIMBI AIRPORT 14BC 2026-05-09 11:30:00 32.8 22.6 34.2 55 SE 19 28 0.0
CENTRAL ARNHEM PLATEAU 14GA 2026-05-09 11:30:00 26.1 17.2 24.0 58 ESE 24 32 0.0
BULMAN 14DE 2026-05-09 11:30:00 28.6 18.4 28.4 54 ESE 17 26 0.0
CAPE WESSEL 14BC 2026-05-09 11:30:00 32.1 25.7 33.7 69 SE 28 35 0.0
GOVE AIRPORT 14BC 2026-05-09 11:36:00 25.9 24.1 25.7 90 SE 32 50 0.0
BORROLOOLA AIRPORT 14DE 2026-05-09 11:30:00 28.8 13.1 26.2 38 SE 19 30 0.0
GROOTE EYLANDT AIRPORT 14BC 2026-05-09 11:30:00 27.0 21.3 28.9 71 SE 13 26 0.0
KANGAROO FLATS (DEFENCE) 14GA 2026-05-09 11:30:00 28.6 19.5 29.6 58 SE 13 24 0.0
MOUNT BUNDEY NORTH (DEFENCE) 14GA 2026-05-09 11:30:00 28.9 19.5 30.7 57 ESE 9 20 0.0
BRADSHAW - ANGALLARI VALLEY (DEFENCE) 14F 2026-05-09 11:30:00 26.9 10.2 25.3 35 ESE 9 20 0.0
BRADSHAW - KOOLENDONG VALLEY (DEFENCE) 14F 2026-05-09 11:30:00 26.7 10.4 25.2 36 SE 9 20 0.0
DELAMERE WEAPONS RANGE 14GA 2026-05-09 11:30:00 25.6 10.2 22.1 38 ESE 19 28 0.0
LAJAMANU AIRPORT 14F 2026-05-09 11:30:00 21.9 3.1 16.2 29 ESE 22 30 0.0
VICTORIA RIVER DOWNS 14F 2026-05-09 11:30:00 25.7 9.5 23.9 36 SE 9 17 0.0
DALY WATERS AIRSTRIP 14DE 2026-05-09 11:30:00 24.4 9.2 21.4 38 SE 15 32 0.0
TENNANT CREEK AIRPORT 15A 2026-05-09 11:30:00 21.0 -1.5 12.5 22 ESE 33 48 0.0
MCARTHUR RIVER MINE AIRPORT 14DE 2026-05-09 11:30:00 28.5 11.6 25.8 35 SE 17 22 0.0
CENTRE ISLAND 14DE 2026-05-09 11:30:00 27.3 15.0 22.8 47 ESE 32 35 0.0
WALUNGURRU AIRPORT 15B 2026-05-09 11:30:00 18.0 -2.3 11.1 25 E 24 35 0.0
ALICE SPRINGS AIRPORT 15B 2026-05-09 11:30:00 16.0 2.8 8.8 41 ESE 30 43 0.0
JERVOIS 15B 2026-05-09 11:30:00 18.5 2.8 12.8 35 SE 22 35 0.0
TERRITORY GRAPE FARM 15B 2026-05-09 11:30:00 17.2 0.8 10.4 33 SE 26 35 0.0
YULARA AIRPORT 15B 2026-05-09 11:30:00 17.2 2.4 9.9 37 E 30 39 0.0
CURTIN SPRINGS 15B 2026-05-09 09:00:00 10.5 1.1 7.0 52 ESE 9 None 0.0
PORT KEATS AIRPORT 14GA 2026-05-09 11:30:00 28.3 13.4 25.6 40 ESE 20 32 0.0
MIDDLE POINT 14GA 2026-05-09 11:30:00 27.8 20.1 27.8 63 ESE 20 26 0.0
DARWIN NTC AWS 14GA 2026-05-09 11:30:00 None None None None - None None -
MANINGRIDA AIRPORT 14BC 2026-05-09 11:30:00 30.7 22.3 31.8 61 ESE 20 35 0.0
NGAYAWILI 14BC 2026-05-09 11:30:00 30.9 23.5 32.8 64 SE 19 28 0.0
RABBIT FLAT 15B 2026-05-09 11:30:00 20.6 -1.2 13.9 23 ESE 24 37 0.0
CHARLES POINT 14GA 2026-05-09 11:30:00 28.9 19.2 29.4 55 ESE 15 26 0.0